sensor_id;sensor_type;location;lat;lon;timestamp;pressure;altitude;pressure_sealevel;temperature;humidity
62710;BME280;48770;51.624;5.886;2023-10-08T00:01:34;102131.22;;;22.94;49.35
62710;BME280;48770;51.624;5.886;2023-10-08T00:04:00;102125.63;;;22.94;49.41
62710;BME280;48770;51.624;5.886;2023-10-08T00:06:29;102127.63;;;22.93;48.90
62710;BME280;48770;51.624;5.886;2023-10-08T00:08:56;102132.84;;;22.95;49.04
62710;BME280;48770;51.624;5.886;2023-10-08T00:11:25;102131.56;;;22.92;49.18
62710;BME280;48770;51.624;5.886;2023-10-08T00:13:51;102136.47;;;22.95;48.87
62710;BME280;48770;51.624;5.886;2023-10-08T00:16:21;102125.97;;;22.92;49.17
62710;BME280;48770;51.624;5.886;2023-10-08T00:18:47;102133.19;;;22.93;49.24
62710;BME280;48770;51.624;5.886;2023-10-08T00:21:17;102137.94;;;22.93;48.92
62710;BME280;48770;51.624;5.886;2023-10-08T00:23:45;102150.75;;;22.94;49.31
62710;BME280;48770;51.624;5.886;2023-10-08T00:26:26;102145.97;;;22.94;48.89
62710;BME280;48770;51.624;5.886;2023-10-08T00:29:05;102147.13;;;22.93;49.29
62710;BME280;48770;51.624;5.886;2023-10-08T00:31:41;102136.66;;;22.90;49.04
62710;BME280;48770;51.624;5.886;2023-10-08T00:34:10;102143.06;;;22.91;49.12
62710;BME280;48770;51.624;5.886;2023-10-08T00:36:41;102142.72;;;22.92;49.12
62710;BME280;48770;51.624;5.886;2023-10-08T00:39:07;102137.94;;;22.93;48.96
62710;BME280;48770;51.624;5.886;2023-10-08T00:41:45;102137.13;;;22.92;49.04
62710;BME280;48770;51.624;5.886;2023-10-08T00:44:17;102138.59;;;22.90;48.79
62710;BME280;48770;51.624;5.886;2023-10-08T00:46:51;102131.91;;;22.91;49.29
62710;BME280;48770;51.624;5.886;2023-10-08T00:49:24;102145.84;;;22.91;49.06
62710;BME280;48770;51.624;5.886;2023-10-08T00:51:55;102160.91;;;22.90;48.82
62710;BME280;48770;51.624;5.886;2023-10-08T00:54:26;102158.97;;;22.90;49.04
62710;BME280;48770;51.624;5.886;2023-10-08T00:56:59;102146.97;;;22.90;49.13
62710;BME280;48770;51.624;5.886;2023-10-08T00:59:28;102152.22;;;22.91;49.19
62710;BME280;48770;51.624;5.886;2023-10-08T01:01:59;102159.78;;;22.91;48.92
62710;BME280;48770;51.624;5.886;2023-10-08T01:04:30;102152.53;;;22.90;49.24
62710;BME280;48770;51.624;5.886;2023-10-08T01:06:59;102158.97;;;22.90;49.08
62710;BME280;48770;51.624;5.886;2023-10-08T01:09:38;102157.31;;;22.89;48.95
62710;BME280;48770;51.624;5.886;2023-10-08T01:12:12;102147.81;;;22.90;49.04
62710;BME280;48770;51.624;5.886;2023-10-08T01:14:47;102154.50;;;22.89;48.92
62710;BME280;48770;51.624;5.886;2023-10-08T01:17:15;102149.75;;;22.90;49.19
62710;BME280;48770;51.624;5.886;2023-10-08T01:19:42;102139.75;;;22.89;49.25
62710;BME280;48770;51.624;5.886;2023-10-08T01:22:13;102145.03;;;22.90;49.00
62710;BME280;48770;51.624;5.886;2023-10-08T01:24:46;102138.13;;;22.88;49.02
62710;BME280;48770;51.624;5.886;2023-10-08T01:27:18;102140.56;;;22.89;48.78
62710;BME280;48770;51.624;5.886;2023-10-08T01:29:50;102135.00;;;22.89;49.13
62710;BME280;48770;51.624;5.886;2023-10-08T01:32:17;102129.41;;;22.89;48.70
62710;BME280;48770;51.624;5.886;2023-10-08T01:34:43;102126.63;;;22.89;48.91
62710;BME280;48770;51.624;5.886;2023-10-08T01:37:18;102131.38;;;22.89;48.86
62710;BME280;48770;51.624;5.886;2023-10-08T01:39:47;102133.34;;;22.88;48.80
62710;BME280;48770;51.624;5.886;2023-10-08T01:42:15;102123.84;;;22.89;48.94
62710;BME280;48770;51.624;5.886;2023-10-08T01:44:49;102128.59;;;22.89;48.74
62710;BME280;48770;51.624;5.886;2023-10-08T01:47:15;102138.94;;;22.88;48.85
62710;BME280;48770;51.624;5.886;2023-10-08T01:49:45;102133.34;;;22.88;48.69
62710;BME280;48770;51.624;5.886;2023-10-08T01:52:14;102137.28;;;22.87;48.80
62710;BME280;48770;51.624;5.886;2023-10-08T01:54:47;102142.88;;;22.87;48.95
62710;BME280;48770;51.624;5.886;2023-10-08T01:57:12;102131.72;;;22.87;48.73
62710;BME280;48770;51.624;5.886;2023-10-08T01:59:37;102131.72;;;22.87;48.97
62710;BME280;48770;51.624;5.886;2023-10-08T02:02:04;102138.94;;;22.88;48.62
62710;BME280;48770;51.624;5.886;2023-10-08T02:04:32;102141.72;;;22.88;49.07
62710;BME280;48770;51.624;5.886;2023-10-08T02:06:58;102162.41;;;22.87;48.94
62710;BME280;48770;51.624;5.886;2023-10-08T02:09:24;102164.03;;;22.88;48.75
62710;BME280;48770;51.624;5.886;2023-10-08T02:11:52;102164.03;;;22.88;48.63
62710;BME280;48770;51.624;5.886;2023-10-08T02:14:19;102155.66;;;22.88;48.79
62710;BME280;48770;51.624;5.886;2023-10-08T02:16:46;102138.13;;;22.88;48.44
62710;BME280;48770;51.624;5.886;2023-10-08T02:19:12;102139.75;;;22.89;48.76
62710;BME280;48770;51.624;5.886;2023-10-08T02:21:38;102136.47;;;22.87;48.82
62710;BME280;48770;51.624;5.886;2023-10-08T02:24:07;102140.09;;;22.87;48.86
62710;BME280;48770;51.624;5.886;2023-10-08T02:26:33;102149.59;;;22.86;48.57
62710;BME280;48770;51.624;5.886;2023-10-08T02:29:03;102160.44;;;22.88;48.77
62710;BME280;48770;51.624;5.886;2023-10-08T02:31:37;102159.59;;;22.87;48.79
62710;BME280;48770;51.624;5.886;2023-10-08T02:34:03;102153.22;;;22.87;48.91
62710;BME280;48770;51.624;5.886;2023-10-08T02:36:29;102153.22;;;22.87;48.87
62710;BME280;48770;51.624;5.886;2023-10-08T02:38:56;102169.47;;;22.85;49.02
62710;BME280;48770;51.624;5.886;2023-10-08T02:41:21;102171.91;;;22.86;48.94
62710;BME280;48770;51.624;5.886;2023-10-08T02:43:49;102181.44;;;22.85;48.92
62710;BME280;48770;51.624;5.886;2023-10-08T02:46:15;102184.22;;;22.85;48.94
62710;BME280;48770;51.624;5.886;2023-10-08T02:48:41;102172.25;;;22.85;48.55
62710;BME280;48770;51.624;5.886;2023-10-08T02:51:07;102177.81;;;22.85;48.63
62710;BME280;48770;51.624;5.886;2023-10-08T02:53:38;102186.19;;;22.85;48.78
62710;BME280;48770;51.624;5.886;2023-10-08T02:56:06;102184.56;;;22.84;48.50
62710;BME280;48770;51.624;5.886;2023-10-08T02:58:41;102205.38;;;22.86;49.03
62710;BME280;48770;51.624;5.886;2023-10-08T03:01:09;102207.34;;;22.86;48.77
62710;BME280;48770;51.624;5.886;2023-10-08T03:03:40;102202.59;;;22.86;48.69
62710;BME280;48770;51.624;5.886;2023-10-08T03:06:06;102196.53;;;22.84;48.90
62710;BME280;48770;51.624;5.886;2023-10-08T03:08:37;102201.78;;;22.86;48.88
62710;BME280;48770;51.624;5.886;2023-10-08T03:11:02;102187.34;;;22.84;49.10
62710;BME280;48770;51.624;5.886;2023-10-08T03:13:29;102172.25;;;22.85;48.87
62710;BME280;48770;51.624;5.886;2023-10-08T03:15:54;102199.31;;;22.84;48.88
62710;BME280;48770;51.624;5.886;2023-10-08T03:18:26;102179.81;;;22.84;48.69
62710;BME280;48770;51.624;5.886;2023-10-08T03:21:01;102194.56;;;22.85;48.55
62710;BME280;48770;51.624;5.886;2023-10-08T03:23:29;102188.97;;;22.85;48.65
62710;BME280;48770;51.624;5.886;2023-10-08T03:26:02;102164.22;;;22.83;48.78
62710;BME280;48770;51.624;5.886;2023-10-08T03:28:53;102211.16;;;22.81;48.73
62710;BME280;48770;51.624;5.886;2023-10-08T03:31:22;102194.09;;;22.83;48.61
62710;BME280;48770;51.624;5.886;2023-10-08T03:34:04;102210.00;;;22.82;49.00
62710;BME280;48770;51.624;5.886;2023-10-08T03:36:31;102216.38;;;22.83;48.80
62710;BME280;48770;51.624;5.886;2023-10-08T03:39:00;102203.25;;;22.83;49.08
62710;BME280;48770;51.624;5.886;2023-10-08T03:41:35;102197.19;;;22.81;48.67
62710;BME280;48770;51.624;5.886;2023-10-08T03:44:05;102182.09;;;22.82;48.66
62710;BME280;48770;51.624;5.886;2023-10-08T03:46:32;102201.63;;;22.82;48.70
62710;BME280;48770;51.624;5.886;2023-10-08T03:49:05;102212.78;;;22.82;48.96
62710;BME280;48770;51.624;5.886;2023-10-08T03:51:37;102207.03;;;22.78;48.93
62710;BME280;48770;51.624;5.886;2023-10-08T03:54:05;102221.16;;;22.82;48.76
62710;BME280;48770;51.624;5.886;2023-10-08T03:56:40;102229.81;;;22.81;48.85
62710;BME280;48770;51.624;5.886;2023-10-08T03:59:13;102219.50;;;22.81;48.58
62710;BME280;48770;51.624;5.886;2023-10-08T04:01:40;102222.78;;;22.83;48.65
62710;BME280;48770;51.624;5.886;2023-10-08T04:04:06;102209.19;;;22.82;48.86
62710;BME280;48770;51.624;5.886;2023-10-08T04:06:37;102196.06;;;22.82;48.76
62710;BME280;48770;51.624;5.886;2023-10-08T04:09:04;102201.63;;;22.82;48.66
62710;BME280;48770;51.624;5.886;2023-10-08T04:11:33;102194.41;;;22.81;48.83
62710;BME280;48770;51.624;5.886;2023-10-08T04:14:07;102203.91;;;22.80;48.87
62710;BME280;48770;51.624;5.886;2023-10-08T04:16:33;102198.84;;;22.82;48.57
62710;BME280;48770;51.624;5.886;2023-10-08T04:19:02;102188.00;;;22.81;48.35
62710;BME280;48770;51.624;5.886;2023-10-08T04:21:29;102206.38;;;22.82;49.00
62710;BME280;48770;51.624;5.886;2023-10-08T04:23:55;102219.00;;;22.79;48.52
62710;BME280;48770;51.624;5.886;2023-10-08T04:26:22;102220.16;;;22.78;48.48
62710;BME280;48770;51.624;5.886;2023-10-08T04:28:54;102219.34;;;22.77;48.79
62710;BME280;48770;51.624;5.886;2023-10-08T04:31:22;102236.25;;;22.81;48.55
62710;BME280;48770;51.624;5.886;2023-10-08T04:33:53;102231.31;;;22.78;49.01
62710;BME280;48770;51.624;5.886;2023-10-08T04:36:19;102235.41;;;22.81;48.62
62710;BME280;48770;51.624;5.886;2023-10-08T04:38:45;102231.78;;;22.80;48.88
62710;BME280;48770;51.624;5.886;2023-10-08T04:41:14;102237.38;;;22.80;48.70
62710;BME280;48770;51.624;5.886;2023-10-08T04:43:42;102247.22;;;22.77;48.68
62710;BME280;48770;51.624;5.886;2023-10-08T04:46:08;102255.59;;;22.77;48.62
62710;BME280;48770;51.624;5.886;2023-10-08T04:48:47;102276.25;;;22.76;48.73
62710;BME280;48770;51.624;5.886;2023-10-08T04:51:15;102279.88;;;22.77;48.61
62710;BME280;48770;51.624;5.886;2023-10-08T04:53:40;102273.97;;;22.78;49.02
62710;BME280;48770;51.624;5.886;2023-10-08T04:56:10;102277.06;;;22.77;48.73
62710;BME280;48770;51.624;5.886;2023-10-08T04:58:40;102291.34;;;22.75;48.71
62710;BME280;48770;51.624;5.886;2023-10-08T05:01:07;102277.41;;;22.75;48.54
62710;BME280;48770;51.624;5.886;2023-10-08T05:03:53;102279.38;;;22.75;48.95
62710;BME280;48770;51.624;5.886;2023-10-08T05:06:33;102286.94;;;22.74;48.97
62710;BME280;48770;51.624;5.886;2023-10-08T05:09:00;102270.53;;;22.73;48.76
62710;BME280;48770;51.624;5.886;2023-10-08T05:11:35;102260.19;;;22.73;48.70
62710;BME280;48770;51.624;5.886;2023-10-08T05:14:20;102261.34;;;22.72;48.95
62710;BME280;48770;51.624;5.886;2023-10-08T05:17:01;102270.53;;;22.73;48.57
62710;BME280;48770;51.624;5.886;2023-10-08T05:19:38;102261.69;;;22.71;48.99
62710;BME280;48770;51.624;5.886;2023-10-08T05:22:12;102267.25;;;22.71;48.78
62710;BME280;48770;51.624;5.886;2023-10-08T05:24:53;102261.69;;;22.71;48.83
62710;BME280;48770;51.624;5.886;2023-10-08T05:27:39;102244.47;;;22.69;48.99
62710;BME280;48770;51.624;5.886;2023-10-08T05:30:14;102225.75;;;22.69;48.64
62710;BME280;48770;51.624;5.886;2023-10-08T05:32:57;102251.69;;;22.70;48.60
62710;BME280;48770;51.624;5.886;2023-10-08T05:35:47;102244.47;;;22.69;49.17
62710;BME280;48770;51.624;5.886;2023-10-08T05:38:17;102250.03;;;22.69;48.84
62710;BME280;48770;51.624;5.886;2023-10-08T05:40:55;102260.03;;;22.70;48.87
62710;BME280;48770;51.624;5.886;2023-10-08T05:43:24;102255.63;;;22.69;48.72
62710;BME280;48770;51.624;5.886;2023-10-08T05:46:09;102271.19;;;22.70;48.60
62710;BME280;48770;51.624;5.886;2023-10-08T05:49:01;102285.47;;;22.68;48.71
62710;BME280;48770;51.624;5.886;2023-10-08T05:51:37;102291.03;;;22.68;48.67
62710;BME280;48770;51.624;5.886;2023-10-08T05:59:50;102268.25;;;22.66;48.84
62710;BME280;48770;51.624;5.886;2023-10-08T06:02:26;102280.72;;;22.69;49.16
62710;BME280;48770;51.624;5.886;2023-10-08T06:04:59;102274.31;;;22.68;48.79
62710;BME280;48770;51.624;5.886;2023-10-08T06:07:38;102264.66;;;22.66;48.80
62710;BME280;48770;51.624;5.886;2023-10-08T06:10:22;102272.69;;;22.67;48.83
62710;BME280;48770;51.624;5.886;2023-10-08T06:12:58;102280.22;;;22.67;48.87
62710;BME280;48770;51.624;5.886;2023-10-08T06:18:20;102274.66;;;22.67;49.17
62710;BME280;48770;51.624;5.886;2023-10-08T06:21:06;102279.06;;;22.68;48.53
62710;BME280;48770;51.624;5.886;2023-10-08T06:23:37;102288.59;;;22.67;49.17
62710;BME280;48770;51.624;5.886;2023-10-08T06:26:03;102284.66;;;22.68;48.78
62710;BME280;48770;51.624;5.886;2023-10-08T06:28:39;102279.06;;;22.68;48.80
62710;BME280;48770;51.624;5.886;2023-10-08T06:31:05;102290.22;;;22.68;48.72
62710;BME280;48770;51.624;5.886;2023-10-08T06:33:40;102301.38;;;22.68;48.88
62710;BME280;48770;51.624;5.886;2023-10-08T06:36:06;102311.72;;;22.67;48.81
62710;BME280;48770;51.624;5.886;2023-10-08T06:38:40;102312.84;;;22.66;48.60
62710;BME280;48770;51.624;5.886;2023-10-08T06:41:08;102311.38;;;22.69;49.03
62710;BME280;48770;51.624;5.886;2023-10-08T06:43:35;102320.56;;;22.69;48.78
62710;BME280;48770;51.624;5.886;2023-10-08T06:46:05;102306.94;;;22.68;49.01
62710;BME280;48770;51.624;5.886;2023-10-08T06:48:37;102310.88;;;22.67;48.93
62710;BME280;48770;51.624;5.886;2023-10-08T06:51:06;102306.94;;;22.68;48.68
62710;BME280;48770;51.624;5.886;2023-10-08T06:53:46;102324.84;;;22.67;48.54
62710;BME280;48770;51.624;5.886;2023-10-08T06:56:12;102347.63;;;22.69;48.82
62710;BME280;48770;51.624;5.886;2023-10-08T06:58:42;102359.94;;;22.68;48.91
62710;BME280;48770;51.624;5.886;2023-10-08T07:01:14;102366.31;;;22.68;48.88
62710;BME280;48770;51.624;5.886;2023-10-08T07:03:49;102372.22;;;22.67;49.02
62710;BME280;48770;51.624;5.886;2023-10-08T07:06:16;102367.81;;;22.66;48.61
62710;BME280;48770;51.624;5.886;2023-10-08T07:08:43;102375.50;;;22.69;48.98
62710;BME280;48770;51.624;5.886;2023-10-08T07:11:12;102379.44;;;22.68;48.76
62710;BME280;48770;51.624;5.886;2023-10-08T07:13:39;102373.88;;;22.68;48.55
62710;BME280;48770;51.624;5.886;2023-10-08T07:16:07;102375.84;;;22.67;48.93
62710;BME280;48770;51.624;5.886;2023-10-08T07:18:37;102375.50;;;22.69;48.65
62710;BME280;48770;51.624;5.886;2023-10-08T07:21:02;102377.47;;;22.68;48.87
62710;BME280;48770;51.624;5.886;2023-10-08T07:23:30;102387.47;;;22.69;48.98
62710;BME280;48770;51.624;5.886;2023-10-08T07:26:03;102373.06;;;22.67;48.76
62710;BME280;48770;51.624;5.886;2023-10-08T07:28:38;102376.16;;;22.66;48.71
62710;BME280;48770;51.624;5.886;2023-10-08T07:31:19;102377.00;;;22.66;48.46
62710;BME280;48770;51.624;5.886;2023-10-08T07:33:51;102372.56;;;22.65;48.50
62710;BME280;48770;51.624;5.886;2023-10-08T07:36:25;102373.06;;;22.67;48.68
62710;BME280;48770;51.624;5.886;2023-10-08T07:38:52;102383.38;;;22.67;48.68
62710;BME280;48770;51.624;5.886;2023-10-08T07:41:18;102377.81;;;22.67;48.91
62710;BME280;48770;51.624;5.886;2023-10-08T07:43:46;102375.03;;;22.67;48.61
62710;BME280;48770;51.624;5.886;2023-10-08T07:46:23;102379.78;;;22.66;48.82
62710;BME280;48770;51.624;5.886;2023-10-08T07:48:53;102387.81;;;22.68;48.76
62710;BME280;48770;51.624;5.886;2023-10-08T07:51:18;102394.53;;;22.67;48.67
62710;BME280;48770;51.624;5.886;2023-10-08T07:53:51;102387.00;;;22.67;49.04
62710;BME280;48770;51.624;5.886;2023-10-08T07:56:21;102384.53;;;22.66;48.82
62710;BME280;48770;51.624;5.886;2023-10-08T07:58:47;102391.75;;;22.67;48.93
62710;BME280;48770;51.624;5.886;2023-10-08T08:01:13;102391.41;;;22.68;48.75
62710;BME280;48770;51.624;5.886;2023-10-08T08:03:40;102397.00;;;22.68;48.93
62710;BME280;48770;51.624;5.886;2023-10-08T08:06:07;102396.19;;;22.68;48.80
62710;BME280;48770;51.624;5.886;2023-10-08T08:08:34;102402.56;;;22.68;48.67
62710;BME280;48770;51.624;5.886;2023-10-08T08:11:01;102397.81;;;22.69;48.49
62710;BME280;48770;51.624;5.886;2023-10-08T08:13:33;102404.53;;;22.68;48.68
62710;BME280;48770;51.624;5.886;2023-10-08T08:16:00;102417.34;;;22.69;48.88
62710;BME280;48770;51.624;5.886;2023-10-08T08:18:36;102411.75;;;22.69;48.85
62710;BME280;48770;51.624;5.886;2023-10-08T08:21:01;102403.72;;;22.67;48.65
62710;BME280;48770;51.624;5.886;2023-10-08T08:23:28;102410.13;;;22.68;48.72
62710;BME280;48770;51.624;5.886;2023-10-08T08:25:54;102412.91;;;22.68;48.72
62710;BME280;48770;51.624;5.886;2023-10-08T08:28:36;102432.44;;;22.68;48.82
62710;BME280;48770;51.624;5.886;2023-10-08T08:31:03;102432.44;;;22.68;48.42
62710;BME280;48770;51.624;5.886;2023-10-08T08:33:41;102435.53;;;22.66;48.76
62710;BME280;48770;51.624;5.886;2023-10-08T08:36:32;102443.91;;;22.66;48.69
62710;BME280;48770;51.624;5.886;2023-10-08T08:38:58;102455.88;;;22.67;48.56
62710;BME280;48770;51.624;5.886;2023-10-08T08:41:23;102467.84;;;22.67;48.75
62710;BME280;48770;51.624;5.886;2023-10-08T08:43:54;102467.53;;;22.69;48.71
62710;BME280;48770;51.624;5.886;2023-10-08T08:46:37;102464.25;;;22.67;48.66
62710;BME280;48770;51.624;5.886;2023-10-08T08:49:06;102467.84;;;22.67;48.85
62710;BME280;48770;51.624;5.886;2023-10-08T08:51:33;102466.72;;;22.68;48.93
62710;BME280;48770;51.624;5.886;2023-10-08T08:54:00;102470.31;;;22.69;48.47
62710;BME280;48770;51.624;5.886;2023-10-08T08:56:32;102473.59;;;22.71;48.59
62710;BME280;48770;51.624;5.886;2023-10-08T08:58:59;102471.94;;;22.70;48.91
62710;BME280;48770;51.624;5.886;2023-10-08T09:01:25;102469.16;;;22.70;49.11
62710;BME280;48770;51.624;5.886;2023-10-08T09:03:50;102464.72;;;22.69;49.17
62710;BME280;48770;51.624;5.886;2023-10-08T09:06:15;102474.75;;;22.70;48.75
62710;BME280;48770;51.624;5.886;2023-10-08T09:08:41;102469.16;;;22.70;48.91
62710;BME280;48770;51.624;5.886;2023-10-08T09:11:07;102460.47;;;22.71;48.86
62710;BME280;48770;51.624;5.886;2023-10-08T09:13:33;102466.38;;;22.70;49.27
62710;BME280;48770;51.624;5.886;2023-10-08T09:16:13;102470.81;;;22.71;49.54
62710;BME280;48770;51.624;5.886;2023-10-08T09:18:41;102473.91;;;22.69;49.43
62710;BME280;48770;51.624;5.886;2023-10-08T09:21:11;102481.47;;;22.69;49.46
62710;BME280;48770;51.624;5.886;2023-10-08T09:23:43;102486.53;;;22.67;49.20
62710;BME280;48770;51.624;5.886;2023-10-08T09:26:12;102487.38;;;22.67;49.32
62710;BME280;48770;51.624;5.886;2023-10-08T09:28:39;102496.88;;;22.66;49.46
62710;BME280;48770;51.624;5.886;2023-10-08T09:31:10;102491.63;;;22.65;48.94
62710;BME280;48770;51.624;5.886;2023-10-08T09:33:36;102493.59;;;22.64;49.19
62710;BME280;48770;51.624;5.886;2023-10-08T09:36:02;102487.16;;;22.64;49.20
62710;BME280;48770;51.624;5.886;2023-10-08T09:38:27;102473.22;;;22.64;48.78
62710;BME280;48770;51.624;5.886;2023-10-08T09:40:55;102474.91;;;22.65;49.20
62710;BME280;48770;51.624;5.886;2023-10-08T09:43:22;102474.91;;;22.65;48.97
62710;BME280;48770;51.624;5.886;2023-10-08T09:45:52;102477.38;;;22.66;48.49
62710;BME280;48770;51.624;5.886;2023-10-08T09:48:20;102484.91;;;22.66;48.60
62710;BME280;48770;51.624;5.886;2023-10-08T09:50:47;102474.91;;;22.65;48.77
62710;BME280;48770;51.624;5.886;2023-10-08T09:53:13;102474.91;;;22.65;48.58
62710;BME280;48770;51.624;5.886;2023-10-08T09:55:50;102469.63;;;22.63;48.62
62710;BME280;48770;51.624;5.886;2023-10-08T09:58:19;102470.44;;;22.64;48.67
62710;BME280;48770;51.624;5.886;2023-10-08T10:00:49;102460.97;;;22.65;48.44
62710;BME280;48770;51.624;5.886;2023-10-08T10:03:16;102459.00;;;22.65;48.48
62710;BME280;48770;51.624;5.886;2023-10-08T10:05:44;102460.63;;;22.66;48.16
62710;BME280;48770;51.624;5.886;2023-10-08T10:08:10;102464.72;;;22.69;48.50
62710;BME280;48770;51.624;5.886;2023-10-08T10:10:37;102463.09;;;22.68;48.27
62710;BME280;48770;51.624;5.886;2023-10-08T10:13:10;102473.44;;;22.67;48.17
62710;BME280;48770;51.624;5.886;2023-10-08T10:15:36;102467.03;;;22.67;48.02
62710;BME280;48770;51.624;5.886;2023-10-08T10:20:38;102462.28;;;22.67;48.22
62710;BME280;48770;51.624;5.886;2023-10-08T10:26:30;102477.16;;;22.63;48.23
62710;BME280;48770;51.624;5.886;2023-10-08T10:31:41;102481.59;;;22.64;48.30
62710;BME280;48770;51.624;5.886;2023-10-08T10:34:13;102473.22;;;22.64;48.22
62710;BME280;48770;51.624;5.886;2023-10-08T10:36:41;102467.34;;;22.65;47.95
62710;BME280;48770;51.624;5.886;2023-10-08T10:39:07;102475.41;;;22.67;48.03
62710;BME280;48770;51.624;5.886;2023-10-08T10:41:46;102470.97;;;22.66;47.82
62710;BME280;48770;51.624;5.886;2023-10-08T10:44:13;102472.94;;;22.65;47.78
62710;BME280;48770;51.624;5.886;2023-10-08T10:46:42;102469.81;;;22.67;48.16
62710;BME280;48770;51.624;5.886;2023-10-08T10:49:08;102465.88;;;22.68;47.69
62710;BME280;48770;51.624;5.886;2023-10-08T10:51:50;102481.47;;;22.69;48.10
62710;BME280;48770;51.624;5.886;2023-10-08T10:54:29;102490.97;;;22.68;48.23
62710;BME280;48770;51.624;5.886;2023-10-08T10:57:01;102484.59;;;22.67;48.07
62710;BME280;48770;51.624;5.886;2023-10-08T10:59:42;102488.50;;;22.66;48.16
62710;BME280;48770;51.624;5.886;2023-10-08T11:02:18;102481.47;;;22.69;48.23
62710;BME280;48770;51.624;5.886;2023-10-08T11:04:56;102473.44;;;22.67;48.34
62710;BME280;48770;51.624;5.886;2023-10-08T11:07:33;102474.25;;;22.68;47.97
62710;BME280;48770;51.624;5.886;2023-10-08T11:10:00;102475.88;;;22.69;48.26
62710;BME280;48770;51.624;5.886;2023-10-08T11:12:25;102477.53;;;22.70;48.08
62710;BME280;48770;51.624;5.886;2023-10-08T11:15:09;102481.13;;;22.70;48.06
62710;BME280;48770;51.624;5.886;2023-10-08T11:17:40;102481.13;;;22.70;48.08
62710;BME280;48770;51.624;5.886;2023-10-08T11:20:23;102475.88;;;22.69;48.12
62710;BME280;48770;51.624;5.886;2023-10-08T11:22:49;102480.31;;;22.70;48.58
62710;BME280;48770;51.624;5.886;2023-10-08T11:25:23;102473.59;;;22.71;48.22
62710;BME280;48770;51.624;5.886;2023-10-08T11:27:53;102472.78;;;22.70;48.29
62710;BME280;48770;51.624;5.886;2023-10-08T11:30:30;102476.06;;;22.72;48.49
62710;BME280;48770;51.624;5.886;2023-10-08T11:33:00;102475.72;;;22.74;48.49
62710;BME280;48770;51.624;5.886;2023-10-08T11:35:25;102471.28;;;22.73;48.42
62710;BME280;48770;51.624;5.886;2023-10-08T11:37:58;102459.31;;;22.72;48.60
62710;BME280;48770;51.624;5.886;2023-10-08T11:40:24;102466.53;;;22.73;48.42
62710;BME280;48770;51.624;5.886;2023-10-08T11:43:14;102455.72;;;22.72;48.48
62710;BME280;48770;51.624;5.886;2023-10-08T11:45:43;102452.09;;;22.71;48.41
62710;BME280;48770;51.624;5.886;2023-10-08T11:48:14;102447.34;;;22.72;48.31
62710;BME280;48770;51.624;5.886;2023-10-08T11:50:42;102452.94;;;22.72;48.22
62710;BME280;48770;51.624;5.886;2023-10-08T11:53:09;102456.88;;;22.71;48.51
62710;BME280;48770;51.624;5.886;2023-10-08T11:55:37;102462.44;;;22.71;48.41
62710;BME280;48770;51.624;5.886;2023-10-08T11:58:05;102464.41;;;22.70;48.38
62710;BME280;48770;51.624;5.886;2023-10-08T12:00:37;102443.56;;;22.68;48.47
62710;BME280;48770;51.624;5.886;2023-10-08T12:03:12;102454.41;;;22.69;48.39
62710;BME280;48770;51.624;5.886;2023-10-08T12:05:38;102446.03;;;22.69;48.30
62710;BME280;48770;51.624;5.886;2023-10-08T12:08:16;102448.00;;;22.69;48.39
62710;BME280;48770;51.624;5.886;2023-10-08T12:10:43;102447.69;;;22.70;48.41
62710;BME280;48770;51.624;5.886;2023-10-08T12:13:09;102441.59;;;22.68;48.75
62710;BME280;48770;51.624;5.886;2023-10-08T12:15:35;102431.28;;;22.69;48.58
62710;BME280;48770;51.624;5.886;2023-10-08T12:18:06;102422.59;;;22.70;48.65
62710;BME280;48770;51.624;5.886;2023-10-08T12:20:50;102435.22;;;22.68;48.66
62710;BME280;48770;51.624;5.886;2023-10-08T12:23:16;102430.63;;;22.72;48.64
62710;BME280;48770;51.624;5.886;2023-10-08T12:25:52;102415.53;;;22.73;48.71
62710;BME280;48770;51.624;5.886;2023-10-08T12:28:18;102422.75;;;22.74;48.68
62710;BME280;48770;51.624;5.886;2023-10-08T12:30:45;102429.97;;;22.75;48.97
62710;BME280;48770;51.624;5.886;2023-10-08T12:33:10;102433.91;;;22.74;48.71
62710;BME280;48770;51.624;5.886;2023-10-08T12:35:39;102432.25;;;22.73;48.76
62710;BME280;48770;51.624;5.886;2023-10-08T12:38:05;102430.63;;;22.72;48.73
62710;BME280;48770;51.624;5.886;2023-10-08T12:40:31;102417.50;;;22.72;49.10
62710;BME280;48770;51.624;5.886;2023-10-08T12:43:15;102425.38;;;22.70;49.09
62710;BME280;48770;51.624;5.886;2023-10-08T12:45:54;102419.78;;;22.70;48.64
62710;BME280;48770;51.624;5.886;2023-10-08T12:48:27;102411.44;;;22.70;49.16
62710;BME280;48770;51.624;5.886;2023-10-08T12:50:54;102409.78;;;22.69;48.99
62710;BME280;48770;51.624;5.886;2023-10-08T12:53:28;102408.63;;;22.70;49.03
62710;BME280;48770;51.624;5.886;2023-10-08T12:56:00;102397.81;;;22.69;48.97
62710;BME280;48770;51.624;5.886;2023-10-08T12:58:32;102402.25;;;22.70;49.04
62710;BME280;48770;51.624;5.886;2023-10-08T13:01:00;102399.47;;;22.70;48.91
62710;BME280;48770;51.624;5.886;2023-10-08T13:03:29;102393.06;;;22.69;49.17
62710;BME280;48770;51.624;5.886;2023-10-08T13:05:58;102383.88;;;22.69;49.01
62710;BME280;48770;51.624;5.886;2023-10-08T13:08:31;102382.72;;;22.70;48.93
62710;BME280;48770;51.624;5.886;2023-10-08T13:11:00;102382.72;;;22.70;48.90
62710;BME280;48770;51.624;5.886;2023-10-08T13:13:32;102376.66;;;22.68;49.24
62710;BME280;48770;51.624;5.886;2023-10-08T13:15:59;102378.31;;;22.69;49.18
62710;BME280;48770;51.624;5.886;2023-10-08T13:18:28;102369.13;;;22.68;48.85
62710;BME280;48770;51.624;5.886;2023-10-08T13:20:53;102364.34;;;22.69;49.03
62710;BME280;48770;51.624;5.886;2023-10-08T13:23:19;102358.78;;;22.69;49.18
62710;BME280;48770;51.624;5.886;2023-10-08T13:25:50;102353.19;;;22.69;48.87